createdAt,value
2022-12-10T00:01:35.122Z,-2.39
2022-12-10T00:04:04.110Z,-2.41
2022-12-10T00:06:34.835Z,-2.39
2022-12-10T00:09:02.736Z,-2.39
2022-12-10T00:11:29.468Z,-2.38
2022-12-10T00:13:56.331Z,-2.35
2022-12-10T00:16:24.970Z,-2.36
2022-12-10T00:18:52.121Z,-2.36
2022-12-10T00:21:22.408Z,-2.35
2022-12-10T00:23:49.834Z,-2.37
2022-12-10T00:26:19.217Z,-2.36
2022-12-10T00:28:47.125Z,-2.37
2022-12-10T00:31:19.166Z,-2.38
2022-12-10T00:33:46.521Z,-2.37
2022-12-10T00:36:18.855Z,-2.39
2022-12-10T00:38:45.802Z,-2.41
2022-12-10T00:41:13.432Z,-2.41
2022-12-10T00:43:40.846Z,-2.36
2022-12-10T00:46:07.773Z,-2.35
2022-12-10T00:48:34.437Z,-2.32
2022-12-10T00:51:03.507Z,-2.29
2022-12-10T00:53:31.670Z,-2.25
2022-12-10T00:55:59.013Z,-2.21
2022-12-10T00:58:29.598Z,-2.16
2022-12-10T01:01:09.804Z,-2.16
2022-12-10T01:03:37.508Z,-2.14
2022-12-10T01:06:13.277Z,-2.11
2022-12-10T01:08:40.084Z,-2.09
2022-12-10T01:11:07.391Z,-2.06
2022-12-10T01:13:34.141Z,-2.02
2022-12-10T01:16:03.127Z,-2.00
2022-12-10T01:18:29.655Z,-2.00
2022-12-10T01:20:56.086Z,-1.96
2022-12-10T01:23:22.511Z,-1.94
2022-12-10T01:25:49.111Z,-1.91
2022-12-10T01:28:15.622Z,-1.90
2022-12-10T01:30:42.023Z,-1.88
2022-12-10T01:33:08.449Z,-1.84
2022-12-10T01:35:38.602Z,-1.81
2022-12-10T01:38:05.184Z,-1.80
2022-12-10T01:40:31.626Z,-1.78
2022-12-10T01:43:00.444Z,-1.74
2022-12-10T01:45:29.289Z,-1.74
2022-12-10T01:47:55.712Z,-1.75
2022-12-10T01:50:22.267Z,-1.74
2022-12-10T01:52:49.439Z,-1.72
2022-12-10T01:55:43.231Z,-1.69
2022-12-10T01:58:10.920Z,-1.65
2022-12-10T02:00:42.823Z,-1.62
2022-12-10T02:03:18.384Z,-1.67
2022-12-10T02:05:55.059Z,-1.71
2022-12-10T02:08:31.648Z,-1.66
2022-12-10T02:11:17.359Z,-1.63
2022-12-10T02:13:53.259Z,-1.59
2022-12-10T02:16:27.444Z,-1.57
2022-12-10T02:19:38.983Z,-1.55
2022-12-10T02:22:07.223Z,-1.55
2022-12-10T02:24:36.628Z,-1.56
2022-12-10T02:27:25.096Z,-1.56
2022-12-10T02:29:54.233Z,-1.53
2022-12-10T02:32:25.151Z,-1.53
2022-12-10T02:34:57.527Z,-1.55
2022-12-10T02:37:37.752Z,-1.51
2022-12-10T02:40:10.427Z,-1.53
2022-12-10T02:42:39.885Z,-1.55
2022-12-10T02:45:08.798Z,-1.55
2022-12-10T02:47:37.795Z,-1.55
2022-12-10T02:50:05.383Z,-1.55
2022-12-10T02:52:31.938Z,-1.59
2022-12-10T02:54:58.512Z,-1.55
2022-12-10T02:57:47.963Z,-1.52
2022-12-10T03:00:20.510Z,-1.51
2022-12-10T03:03:13.342Z,-1.51
2022-12-10T03:06:17.536Z,-1.46
2022-12-10T03:08:52.158Z,-1.43
2022-12-10T03:11:22.536Z,-1.44
2022-12-10T03:13:54.991Z,-1.43
2022-12-10T03:16:23.550Z,-1.43
2022-12-10T03:18:56.467Z,-1.46
2022-12-10T03:21:24.853Z,-1.50
2022-12-10T03:23:51.986Z,-1.53
2022-12-10T03:26:21.063Z,-1.53
2022-12-10T03:28:52.430Z,-1.53
2022-12-10T03:31:20.297Z,-1.50
2022-12-10T03:33:48.728Z,-1.49
2022-12-10T03:36:17.676Z,-1.54
2022-12-10T03:38:44.565Z,-1.55
2022-12-10T03:41:11.360Z,-1.50
2022-12-10T03:43:51.341Z,-1.51
2022-12-10T03:46:17.800Z,-1.54
2022-12-10T03:48:44.278Z,-1.51
2022-12-10T03:51:10.699Z,-1.54
2022-12-10T03:53:37.159Z,-1.59
2022-12-10T03:56:03.785Z,-1.59
2022-12-10T03:58:30.244Z,-1.60
2022-12-10T04:00:56.676Z,-1.59
2022-12-10T04:03:23.070Z,-1.58
2022-12-10T04:05:49.468Z,-1.54
2022-12-10T04:08:16.127Z,-1.56
2022-12-10T04:10:42.659Z,-1.54
2022-12-10T04:13:27.447Z,-1.56
2022-12-10T04:16:12.251Z,-1.58
2022-12-10T04:18:38.633Z,-1.60
2022-12-10T04:21:23.636Z,-1.65
2022-12-10T04:24:08.523Z,-1.65
2022-12-10T04:26:53.306Z,-1.60
2022-12-10T04:29:30.173Z,-1.56
2022-12-10T04:31:57.431Z,-1.59
2022-12-10T04:34:25.056Z,-1.57
2022-12-10T04:36:52.294Z,-1.61
2022-12-10T04:39:19.148Z,-1.64
2022-12-10T04:41:48.027Z,-1.58
2022-12-10T04:44:14.989Z,-1.62
2022-12-10T04:46:42.970Z,-1.62
2022-12-10T04:49:09.727Z,-1.69
2022-12-10T04:51:36.351Z,-1.67
2022-12-10T04:54:03.107Z,-1.66
2022-12-10T04:56:30.035Z,-1.66
2022-12-10T04:58:57.812Z,-1.66
2022-12-10T05:01:24.764Z,-1.65
2022-12-10T05:03:51.759Z,-1.65
2022-12-10T05:06:20.195Z,-1.64
2022-12-10T05:08:47.659Z,-1.60
2022-12-10T05:11:17.246Z,-1.62
2022-12-10T05:13:44.712Z,-1.61
2022-12-10T05:16:13.845Z,-1.57
2022-12-10T05:18:41.110Z,-1.61
2022-12-10T05:21:11.695Z,-1.56
2022-12-10T05:23:39.948Z,-1.58
2022-12-10T05:26:13.875Z,-1.60
2022-12-10T05:28:43.319Z,-1.61
2022-12-10T05:31:21.757Z,-1.57
2022-12-10T05:33:48.755Z,-1.56
2022-12-10T05:36:17.754Z,-1.53
2022-12-10T05:38:45.040Z,-1.56
2022-12-10T05:41:19.935Z,-1.57
2022-12-10T05:43:46.845Z,-1.55
2022-12-10T05:46:17.075Z,-1.57
2022-12-10T05:48:43.654Z,-1.56
2022-12-10T05:51:16.529Z,-1.53
2022-12-10T05:53:43.482Z,-1.52
2022-12-10T05:56:12.775Z,-1.53
2022-12-10T05:58:41.051Z,-1.52
2022-12-10T06:01:19.124Z,-1.50
2022-12-10T06:03:46.043Z,-1.52
2022-12-10T06:06:13.575Z,-1.53
2022-12-10T06:08:40.775Z,-1.53
2022-12-10T06:11:10.493Z,-1.55
2022-12-10T06:13:38.133Z,-1.54
2022-12-10T06:16:10.323Z,-1.53
2022-12-10T06:18:37.411Z,-1.53
2022-12-10T06:21:09.152Z,-1.58
2022-12-10T06:23:36.805Z,-1.61
2022-12-10T06:26:08.358Z,-1.62
2022-12-10T06:28:34.909Z,-1.62
2022-12-10T06:31:01.480Z,-1.61
2022-12-10T06:33:28.261Z,-1.62
2022-12-10T06:35:54.703Z,-1.59
2022-12-10T06:38:21.236Z,-1.59
2022-12-10T06:40:47.974Z,-1.57
2022-12-10T06:43:14.367Z,-1.58
2022-12-10T06:45:42.205Z,-1.54
2022-12-10T06:48:09.356Z,-1.54
2022-12-10T06:50:36.584Z,-1.52
2022-12-10T06:53:04.004Z,-1.54
2022-12-10T06:55:30.746Z,-1.53
2022-12-10T06:57:57.324Z,-1.59
2022-12-10T07:00:23.799Z,-1.57
2022-12-10T07:02:50.366Z,-1.52
2022-12-10T07:05:17.571Z,-1.52
2022-12-10T07:07:44.266Z,-1.52
2022-12-10T07:10:11.567Z,-1.53
2022-12-10T07:12:38.456Z,-1.58
2022-12-10T07:15:05.632Z,-1.61
2022-12-10T07:17:32.108Z,-1.64
2022-12-10T07:19:58.610Z,-1.62
2022-12-10T07:22:25.259Z,-1.60
2022-12-10T07:24:51.852Z,-1.58
2022-12-10T07:27:18.362Z,-1.60
2022-12-10T07:29:45.386Z,-1.62
2022-12-10T07:32:11.978Z,-1.61
2022-12-10T07:34:38.528Z,-1.60
2022-12-10T07:37:04.979Z,-1.62
2022-12-10T07:39:31.391Z,-1.61
2022-12-10T07:41:57.946Z,-1.65
2022-12-10T07:44:26.821Z,-1.64
2022-12-10T07:46:54.909Z,-1.60
2022-12-10T07:49:21.430Z,-1.60
2022-12-10T07:51:49.428Z,-1.58
2022-12-10T07:54:16.804Z,-1.58
2022-12-10T07:56:43.807Z,-1.60
2022-12-10T07:59:10.924Z,-1.60
2022-12-10T08:01:37.489Z,-1.66
2022-12-10T08:04:04.229Z,-1.64
2022-12-10T08:06:31.219Z,-1.71
2022-12-10T08:08:59.715Z,-1.78
2022-12-10T08:11:27.694Z,-1.78
2022-12-10T08:13:57.289Z,-1.76
2022-12-10T08:16:26.852Z,-1.68
2022-12-10T08:18:54.311Z,-1.64
2022-12-10T08:21:23.423Z,-1.58
2022-12-10T08:23:50.084Z,-1.54
2022-12-10T08:26:22.963Z,-1.54
2022-12-10T08:28:50.534Z,-1.56
2022-12-10T08:31:18.812Z,-1.56
2022-12-10T08:33:45.617Z,-1.59
2022-12-10T08:36:13.962Z,-1.59
2022-12-10T08:38:41.571Z,-1.57
2022-12-10T08:41:10.204Z,-1.54
2022-12-10T08:43:36.705Z,-1.53
2022-12-10T08:46:03.379Z,-1.46
2022-12-10T08:48:30.113Z,-1.45
2022-12-10T08:50:56.632Z,-1.45
2022-12-10T08:53:23.691Z,-1.43
2022-12-10T08:55:51.983Z,-1.41
2022-12-10T08:58:18.559Z,-1.39
2022-12-10T09:00:45.405Z,-1.42
2022-12-10T09:03:11.951Z,-1.40
2022-12-10T09:05:38.778Z,-1.38
2022-12-10T09:08:05.514Z,-1.37
2022-12-10T09:10:32.239Z,-1.38
2022-12-10T09:13:03.098Z,-1.30
2022-12-10T09:15:30.322Z,-1.30
2022-12-10T09:17:56.819Z,-1.33
2022-12-10T09:20:23.297Z,-1.34
2022-12-10T09:22:49.976Z,-1.32
2022-12-10T09:25:17.848Z,-1.33
2022-12-10T09:27:45.095Z,-1.33
2022-12-10T09:30:12.895Z,-1.36
2022-12-10T09:32:39.495Z,-1.36
2022-12-10T09:35:07.180Z,-1.32
2022-12-10T09:37:33.695Z,-1.34
2022-12-10T09:40:00.270Z,-1.32
2022-12-10T09:42:39.767Z,-1.25
2022-12-10T09:45:24.931Z,-1.22
2022-12-10T09:48:45.412Z,-1.15
2022-12-10T09:51:21.356Z,-1.14
2022-12-10T09:53:49.717Z,-1.13
2022-12-10T09:56:24.266Z,-1.14
2022-12-10T09:58:50.801Z,-1.14
2022-12-10T10:01:20.893Z,-1.09
2022-12-10T10:03:48.967Z,-1.03
2022-12-10T10:06:17.272Z,-1.02
2022-12-10T10:08:47.903Z,-0.99
2022-12-10T10:11:21.399Z,-1.00
2022-12-10T10:13:50.433Z,-1.07
2022-12-10T10:16:16.830Z,-1.06
2022-12-10T10:18:47.616Z,-0.98
2022-12-10T10:21:25.442Z,-0.93
2022-12-10T10:23:52.983Z,-0.93
2022-12-10T10:26:19.546Z,-0.92
2022-12-10T10:28:47.088Z,-0.96
2022-12-10T10:31:27.503Z,-0.89
2022-12-10T10:34:00.379Z,-0.92
2022-12-10T10:36:30.595Z,-0.92
2022-12-10T10:38:57.733Z,-0.89
2022-12-10T10:41:26.751Z,-0.85
2022-12-10T10:44:02.807Z,-0.78
2022-12-10T10:46:29.769Z,-0.70
2022-12-10T10:49:33.656Z,-0.67
2022-12-10T10:52:21.639Z,-0.66
2022-12-10T10:54:48.996Z,-0.65
2022-12-10T10:57:37.209Z,-0.67
2022-12-10T11:00:09.994Z,-0.72
2022-12-10T11:02:38.709Z,-0.75
2022-12-10T11:05:33.643Z,-0.77
2022-12-10T11:08:04.972Z,-0.72
2022-12-10T11:10:32.084Z,-0.72
2022-12-10T11:13:20.348Z,-0.75
2022-12-10T11:15:54.592Z,-0.78
2022-12-10T11:18:30.305Z,-0.74
2022-12-10T11:21:17.403Z,-0.69
2022-12-10T11:23:49.301Z,-0.70
2022-12-10T11:26:38.196Z,-0.76
2022-12-10T11:29:38.123Z,-0.76
2022-12-10T11:32:32.554Z,-0.79
2022-12-10T11:35:17.580Z,-0.78
2022-12-10T11:38:02.352Z,-0.78
2022-12-10T11:40:50.378Z,-0.85
2022-12-10T11:43:34.007Z,-0.77
2022-12-10T11:46:25.119Z,-0.67
2022-12-10T11:49:14.084Z,-0.63
2022-12-10T11:51:52.361Z,-0.59
2022-12-10T11:54:28.925Z,-0.59
2022-12-10T11:57:09.819Z,-0.61
2022-12-10T12:00:07.677Z,-0.68
2022-12-10T12:03:00.273Z,-0.69
2022-12-10T12:05:52.427Z,-0.70
2022-12-10T12:08:50.527Z,-0.65
2022-12-10T12:11:16.868Z,-0.63
2022-12-10T12:13:46.227Z,-0.62
2022-12-10T12:16:20.869Z,-0.59
2022-12-10T12:18:55.881Z,-0.58
2022-12-10T12:21:22.379Z,-0.62
2022-12-10T12:24:14.817Z,-0.58
2022-12-10T12:27:02.024Z,-0.59
2022-12-10T12:29:37.701Z,-0.55
2022-12-10T12:32:17.980Z,-0.58
2022-12-10T12:35:01.371Z,-0.54
2022-12-10T12:37:39.705Z,-0.53
2022-12-10T12:40:21.422Z,-0.54
2022-12-10T12:42:56.939Z,-0.53
2022-12-10T12:45:40.048Z,-0.53
2022-12-10T12:48:21.684Z,-0.53
2022-12-10T12:51:07.339Z,-0.61
2022-12-10T12:53:36.044Z,-0.68
2022-12-10T12:56:26.912Z,-0.73
2022-12-10T12:59:37.422Z,-0.69
2022-12-10T13:02:41.719Z,-0.73
2022-12-10T13:05:19.363Z,-0.76
2022-12-10T13:08:28.676Z,-0.75
2022-12-10T13:11:36.222Z,-0.75
2022-12-10T13:14:16.264Z,-0.73
2022-12-10T13:16:42.598Z,-0.70
2022-12-10T13:19:21.212Z,-0.66
2022-12-10T13:22:04.730Z,-0.68
2022-12-10T13:24:36.699Z,-0.68
2022-12-10T13:27:12.010Z,-0.71
2022-12-10T13:29:53.374Z,-0.73
2022-12-10T13:32:32.428Z,-0.71
2022-12-10T13:35:23.443Z,-0.69
2022-12-10T13:37:49.823Z,-0.68
2022-12-10T13:40:26.676Z,-0.66
2022-12-10T13:43:38.755Z,-0.71
2022-12-10T13:46:31.240Z,-0.70
2022-12-10T13:49:17.003Z,-0.67
2022-12-10T13:51:58.225Z,-0.64
2022-12-10T13:54:57.131Z,-0.61
2022-12-10T13:57:56.026Z,-0.59
2022-12-10T14:00:29.141Z,-0.61
2022-12-10T14:03:28.215Z,-0.61
2022-12-10T14:06:20.324Z,-0.60
2022-12-10T14:09:12.522Z,-0.62
2022-12-10T14:11:51.991Z,-0.60
2022-12-10T14:14:30.082Z,-0.62
2022-12-10T14:16:57.198Z,-0.64
2022-12-10T14:19:27.661Z,-0.61
2022-12-10T14:21:54.341Z,-0.66
2022-12-10T14:24:29.904Z,-0.69
2022-12-10T14:26:59.616Z,-0.72
2022-12-10T14:29:29.418Z,-0.72
2022-12-10T14:31:56.918Z,-0.73
2022-12-10T14:34:27.476Z,-0.71
2022-12-10T14:36:57.854Z,-0.72
2022-12-10T14:39:29.407Z,-0.74
2022-12-10T14:41:59.681Z,-0.74
2022-12-10T14:44:26.940Z,-0.73
2022-12-10T14:47:07.924Z,-0.72
2022-12-10T14:49:43.449Z,-0.75
2022-12-10T14:52:25.516Z,-0.79
2022-12-10T14:54:52.532Z,-0.82
2022-12-10T14:57:34.103Z,-0.77
2022-12-10T15:00:07.787Z,-0.78
2022-12-10T15:02:39.693Z,-0.81
2022-12-10T15:05:28.370Z,-0.78
2022-12-10T15:08:01.185Z,-0.75
2022-12-10T15:10:40.870Z,-0.73
2022-12-10T15:13:16.782Z,-0.75
2022-12-10T15:15:44.105Z,-0.73
2022-12-10T15:18:13.269Z,-0.76
2022-12-10T15:20:51.458Z,-0.73
2022-12-10T15:23:26.810Z,-0.73
2022-12-10T15:26:19.414Z,-0.72
2022-12-10T15:28:47.586Z,-0.71
2022-12-10T15:31:30.833Z,-0.71
2022-12-10T15:33:59.744Z,-0.73
2022-12-10T15:36:50.268Z,-0.76
2022-12-10T15:39:25.440Z,-0.78
2022-12-10T15:41:59.924Z,-0.75
2022-12-10T15:44:44.928Z,-0.75
2022-12-10T15:47:26.062Z,-0.72
2022-12-10T15:49:56.577Z,-0.69
2022-12-10T15:52:25.548Z,-0.67
2022-12-10T15:54:54.478Z,-0.68
2022-12-10T15:57:33.601Z,-0.68
2022-12-10T16:00:07.536Z,-0.70
2022-12-10T16:02:44.841Z,-0.72
2022-12-10T16:05:11.206Z,-0.69
2022-12-10T16:07:37.948Z,-0.69
2022-12-10T16:10:05.708Z,-0.69
2022-12-10T16:12:40.115Z,-0.69
2022-12-10T16:15:11.829Z,-0.68
2022-12-10T16:17:38.325Z,-0.70
2022-12-10T16:20:23.024Z,-0.71
2022-12-10T16:22:50.324Z,-0.69
2022-12-10T16:25:17.414Z,-0.67
2022-12-10T16:27:44.475Z,-0.64
2022-12-10T16:30:17.930Z,-0.66
2022-12-10T16:32:45.180Z,-0.67
2022-12-10T16:35:14.931Z,-0.68
2022-12-10T16:37:46.679Z,-0.65
2022-12-10T16:40:14.975Z,-0.66
2022-12-10T16:42:42.476Z,-0.64
2022-12-10T16:45:18.443Z,-0.60
2022-12-10T16:47:45.087Z,-0.60
2022-12-10T16:50:12.902Z,-0.58
2022-12-10T16:52:39.596Z,-0.60
2022-12-10T16:55:08.635Z,-0.64
2022-12-10T16:57:35.728Z,-0.63
2022-12-10T17:00:02.417Z,-0.60
2022-12-10T17:02:28.821Z,-0.56
2022-12-10T17:04:55.385Z,-0.56
2022-12-10T17:07:21.808Z,-0.58
2022-12-10T17:09:48.317Z,-0.58
2022-12-10T17:12:15.079Z,-0.60
2022-12-10T17:14:47.326Z,-0.59
2022-12-10T17:17:15.794Z,-0.61
2022-12-10T17:19:43.049Z,-0.58
2022-12-10T17:22:10.147Z,-0.61
2022-12-10T17:24:37.332Z,-0.59
2022-12-10T17:27:08.356Z,-0.57
2022-12-10T17:29:39.468Z,-0.55
2022-12-10T17:32:07.598Z,-0.53
2022-12-10T17:34:34.089Z,-0.54
2022-12-10T17:37:00.626Z,-0.53
2022-12-10T17:39:29.453Z,-0.51
2022-12-10T17:41:56.198Z,-0.49
2022-12-10T17:44:23.095Z,-0.46
2022-12-10T17:46:49.549Z,-0.46
2022-12-10T17:49:16.491Z,-0.44
2022-12-10T17:51:43.733Z,-0.44
2022-12-10T17:54:10.261Z,-0.46
2022-12-10T17:56:36.826Z,-0.46
2022-12-10T17:59:03.755Z,-0.50
2022-12-10T18:01:31.579Z,-0.55
2022-12-10T18:03:58.191Z,-0.56
2022-12-10T18:06:28.159Z,-0.57
2022-12-10T18:08:57.535Z,-0.56
2022-12-10T18:11:28.524Z,-0.57
2022-12-10T18:13:54.984Z,-0.58
2022-12-10T18:16:28.495Z,-0.57
2022-12-10T18:18:55.650Z,-0.55
2022-12-10T18:21:23.033Z,-0.54
2022-12-10T18:23:49.903Z,-0.51
2022-12-10T18:26:20.441Z,-0.51
2022-12-10T18:28:56.786Z,-0.51
2022-12-10T18:31:30.074Z,-0.50
2022-12-10T18:34:00.069Z,-0.48
2022-12-10T18:36:30.330Z,-0.45
2022-12-10T18:38:59.228Z,-0.46
2022-12-10T18:41:26.440Z,-0.42
2022-12-10T18:43:53.163Z,-0.41
2022-12-10T18:46:25.948Z,-0.37
2022-12-10T18:48:52.850Z,-0.36
2022-12-10T18:51:19.952Z,-0.36
2022-12-10T18:53:47.569Z,-0.36
2022-12-10T18:56:17.822Z,-0.38
2022-12-10T18:58:45.031Z,-0.34
2022-12-10T19:01:13.585Z,-0.33
2022-12-10T19:03:45.015Z,-0.32
2022-12-10T19:06:19.563Z,-0.31
2022-12-10T19:09:17.712Z,-0.29
2022-12-10T19:11:34.164Z,-0.29
2022-12-10T19:14:00.679Z,-0.30
2022-12-10T19:16:27.253Z,-0.28
2022-12-10T19:18:55.836Z,-0.31
2022-12-10T19:21:22.219Z,-0.30
2022-12-10T19:23:48.666Z,-0.31
2022-12-10T19:26:25.133Z,-0.27
2022-12-10T19:28:52.506Z,-0.26
2022-12-10T19:31:19.438Z,-0.27
2022-12-10T19:33:46.581Z,-0.25
2022-12-10T19:36:25.245Z,-0.28
2022-12-10T19:38:53.335Z,-0.29
2022-12-10T19:41:20.362Z,-0.27
2022-12-10T19:43:46.822Z,-0.26
2022-12-10T19:46:19.982Z,-0.25
2022-12-10T19:48:47.284Z,-0.23
2022-12-10T19:51:14.335Z,-0.22
2022-12-10T19:53:42.565Z,-0.23
2022-12-10T19:56:30.246Z,-0.19
2022-12-10T19:59:02.595Z,-0.20
2022-12-10T20:01:29.694Z,-0.19
2022-12-10T20:03:57.214Z,-0.17
2022-12-10T20:06:31.560Z,-0.17
2022-12-10T20:08:59.803Z,-0.17
2022-12-10T20:11:27.485Z,-0.15
2022-12-10T20:13:54.093Z,-0.16
2022-12-10T20:16:30.093Z,-0.15
2022-12-10T20:18:58.588Z,-0.14
2022-12-10T20:21:27.381Z,-0.13
2022-12-10T20:23:59.619Z,-0.13
2022-12-10T20:26:32.712Z,-0.15
2022-12-10T20:28:59.967Z,-0.16
2022-12-10T20:31:27.161Z,-0.18
2022-12-10T20:33:53.881Z,-0.15
2022-12-10T20:36:24.291Z,-0.14
2022-12-10T20:38:51.515Z,-0.12
2022-12-10T20:41:18.973Z,-0.13
2022-12-10T20:43:45.559Z,-0.11
2022-12-10T20:46:23.218Z,-0.09
2022-12-10T20:48:50.460Z,-0.09
2022-12-10T20:51:18.621Z,-0.10
2022-12-10T20:53:46.192Z,-0.07
2022-12-10T20:56:17.994Z,-0.06
2022-12-10T20:58:45.543Z,-0.08
2022-12-10T21:01:12.063Z,-0.08
2022-12-10T21:03:39.076Z,-0.07
2022-12-10T21:06:07.581Z,-0.06
2022-12-10T21:08:34.141Z,-0.08
2022-12-10T21:11:00.659Z,-0.08
2022-12-10T21:13:29.612Z,-0.05
2022-12-10T21:16:01.000Z,-0.04
2022-12-10T21:18:28.525Z,-0.07
2022-12-10T21:20:55.937Z,-0.07
2022-12-10T21:23:26.225Z,-0.05
2022-12-10T21:25:54.671Z,-0.05
2022-12-10T21:28:22.322Z,-0.03
2022-12-10T21:30:50.563Z,-0.03
2022-12-10T21:33:19.404Z,-0.04
2022-12-10T21:35:47.280Z,-0.03
2022-12-10T21:38:14.279Z,-0.01
2022-12-10T21:40:43.014Z,0.02
2022-12-10T21:43:23.837Z,0.01
2022-12-10T21:45:52.864Z,0.02
2022-12-10T21:48:22.844Z,0.04
2022-12-10T21:50:57.023Z,0.03
2022-12-10T21:53:23.501Z,0.05
2022-12-10T21:55:49.928Z,0.05
2022-12-10T21:58:16.360Z,0.05
2022-12-10T22:00:42.927Z,0.06
2022-12-10T22:03:09.546Z,0.06
2022-12-10T22:05:42.452Z,0.08
2022-12-10T22:08:09.129Z,0.07
2022-12-10T22:10:35.697Z,0.07
2022-12-10T22:13:02.232Z,0.06
2022-12-10T22:15:28.701Z,0.06
2022-12-10T22:17:55.147Z,0.06
2022-12-10T22:20:21.647Z,0.08
2022-12-10T22:22:48.115Z,0.08
2022-12-10T22:25:14.528Z,0.09
2022-12-10T22:27:41.900Z,0.12
2022-12-10T22:30:09.215Z,0.12
2022-12-10T22:32:35.745Z,0.13
2022-12-10T22:35:02.445Z,0.14
2022-12-10T22:37:28.852Z,0.14
2022-12-10T22:39:55.760Z,0.15
2022-12-10T22:42:22.277Z,0.15
2022-12-10T22:44:48.688Z,0.14
2022-12-10T22:47:15.148Z,0.13
2022-12-10T22:49:41.651Z,0.15
2022-12-10T22:52:08.055Z,0.15
2022-12-10T22:54:34.464Z,0.14
2022-12-10T22:57:01.030Z,0.16
2022-12-10T22:59:28.287Z,0.17
2022-12-10T23:01:56.828Z,0.18
2022-12-10T23:04:23.331Z,0.17
2022-12-10T23:06:50.979Z,0.17
2022-12-10T23:09:17.480Z,0.16
2022-12-10T23:12:03.852Z,0.18
2022-12-10T23:14:30.412Z,0.21
2022-12-10T23:16:56.885Z,0.20
2022-12-10T23:19:23.993Z,0.22
2022-12-10T23:21:50.480Z,0.23
2022-12-10T23:24:16.947Z,0.22
2022-12-10T23:26:44.548Z,0.21
2022-12-10T23:29:11.671Z,0.23
2022-12-10T23:31:38.465Z,0.20
2022-12-10T23:34:05.259Z,0.19
2022-12-10T23:36:31.880Z,0.20
2022-12-10T23:38:58.371Z,0.21
2022-12-10T23:41:24.791Z,0.22
2022-12-10T23:43:57.038Z,0.24
2022-12-10T23:46:24.356Z,0.23
2022-12-10T23:48:50.837Z,0.21
2022-12-10T23:51:17.360Z,0.19
2022-12-10T23:53:43.832Z,0.23
2022-12-10T23:56:16.664Z,0.23
2022-12-10T23:58:43.729Z,0.23
